sensor_id;sensor_type;location;lat;lon;timestamp;P1;durP1;ratioP1;P2;durP2;ratioP2
38123;SDS011;23934;47.998;9.832;2022-10-15T00:01:11;2.05;;;1.20;;
38123;SDS011;23934;47.998;9.832;2022-10-15T00:03:39;1.30;;;0.77;;
38123;SDS011;23934;47.998;9.832;2022-10-15T00:06:06;2.17;;;1.10;;
38123;SDS011;23934;47.998;9.832;2022-10-15T00:08:32;5.70;;;1.85;;
38123;SDS011;23934;47.998;9.832;2022-10-15T00:11:03;3.55;;;1.50;;
38123;SDS011;23934;47.998;9.832;2022-10-15T00:13:29;2.55;;;1.48;;
38123;SDS011;23934;47.998;9.832;2022-10-15T00:15:56;2.67;;;1.40;;
38123;SDS011;23934;47.998;9.832;2022-10-15T00:18:23;4.88;;;1.60;;
38123;SDS011;23934;47.998;9.832;2022-10-15T00:20:49;5.80;;;1.40;;
38123;SDS011;23934;47.998;9.832;2022-10-15T00:23:14;2.90;;;1.13;;
38123;SDS011;23934;47.998;9.832;2022-10-15T00:25:40;4.78;;;1.73;;
38123;SDS011;23934;47.998;9.832;2022-10-15T00:28:06;6.00;;;1.58;;
38123;SDS011;23934;47.998;9.832;2022-10-15T00:30:32;3.05;;;1.63;;
38123;SDS011;23934;47.998;9.832;2022-10-15T00:32:58;4.90;;;1.83;;
38123;SDS011;23934;47.998;9.832;2022-10-15T00:35:24;4.68;;;1.60;;
38123;SDS011;23934;47.998;9.832;2022-10-15T00:37:50;2.47;;;1.30;;
38123;SDS011;23934;47.998;9.832;2022-10-15T00:40:16;6.00;;;1.42;;
38123;SDS011;23934;47.998;9.832;2022-10-15T00:42:44;2.25;;;1.40;;
38123;SDS011;23934;47.998;9.832;2022-10-15T00:45:10;3.53;;;1.85;;
38123;SDS011;23934;47.998;9.832;2022-10-15T00:47:38;2.53;;;1.35;;
38123;SDS011;23934;47.998;9.832;2022-10-15T00:50:10;4.20;;;2.10;;
38123;SDS011;23934;47.998;9.832;2022-10-15T00:52:45;3.42;;;0.90;;
38123;SDS011;23934;47.998;9.832;2022-10-15T00:57:40;5.68;;;2.33;;
38123;SDS011;23934;47.998;9.832;2022-10-15T01:00:09;5.90;;;2.33;;
38123;SDS011;23934;47.998;9.832;2022-10-15T01:02:35;3.10;;;1.05;;
38123;SDS011;23934;47.998;9.832;2022-10-15T01:05:01;3.38;;;1.50;;
38123;SDS011;23934;47.998;9.832;2022-10-15T01:10:33;4.20;;;1.58;;
38123;SDS011;23934;47.998;9.832;2022-10-15T01:15:30;2.50;;;1.50;;
38123;SDS011;23934;47.998;9.832;2022-10-15T01:18:11;4.53;;;1.42;;
38123;SDS011;23934;47.998;9.832;2022-10-15T01:21:00;3.85;;;1.58;;
38123;SDS011;23934;47.998;9.832;2022-10-15T01:23:37;4.25;;;1.48;;
38123;SDS011;23934;47.998;9.832;2022-10-15T01:34:31;3.40;;;1.48;;
38123;SDS011;23934;47.998;9.832;2022-10-15T01:36:38;3.80;;;1.33;;
38123;SDS011;23934;47.998;9.832;2022-10-15T01:39:09;3.33;;;1.48;;
38123;SDS011;23934;47.998;9.832;2022-10-15T01:41:43;4.45;;;1.20;;
38123;SDS011;23934;47.998;9.832;2022-10-15T01:44:15;4.50;;;1.38;;
38123;SDS011;23934;47.998;9.832;2022-10-15T01:46:50;2.00;;;1.05;;
38123;SDS011;23934;47.998;9.832;2022-10-15T01:49:19;4.38;;;1.25;;
38123;SDS011;23934;47.998;9.832;2022-10-15T01:51:46;3.97;;;1.65;;
38123;SDS011;23934;47.998;9.832;2022-10-15T01:54:14;6.25;;;1.65;;
38123;SDS011;23934;47.998;9.832;2022-10-15T01:56:42;8.27;;;1.98;;
38123;SDS011;23934;47.998;9.832;2022-10-15T01:59:13;4.28;;;1.10;;
38123;SDS011;23934;47.998;9.832;2022-10-15T02:01:42;2.70;;;1.20;;
38123;SDS011;23934;47.998;9.832;2022-10-15T02:04:19;2.40;;;1.35;;
38123;SDS011;23934;47.998;9.832;2022-10-15T02:06:45;6.28;;;1.55;;
38123;SDS011;23934;47.998;9.832;2022-10-15T02:14:43;1.60;;;1.10;;
38123;SDS011;23934;47.998;9.832;2022-10-15T02:17:12;3.92;;;1.38;;
38123;SDS011;23934;47.998;9.832;2022-10-15T02:19:42;2.65;;;1.45;;
38123;SDS011;23934;47.998;9.832;2022-10-15T02:24:52;1.90;;;1.40;;
38123;SDS011;23934;47.998;9.832;2022-10-15T02:27:19;1.88;;;1.13;;
38123;SDS011;23934;47.998;9.832;2022-10-15T02:29:45;4.45;;;1.75;;
38123;SDS011;23934;47.998;9.832;2022-10-15T02:32:13;2.00;;;1.15;;
38123;SDS011;23934;47.998;9.832;2022-10-15T02:34:40;5.57;;;1.90;;
38123;SDS011;23934;47.998;9.832;2022-10-15T02:37:06;3.55;;;1.63;;
38123;SDS011;23934;47.998;9.832;2022-10-15T02:39:33;4.15;;;1.27;;
38123;SDS011;23934;47.998;9.832;2022-10-15T02:41:59;3.13;;;1.63;;
38123;SDS011;23934;47.998;9.832;2022-10-15T02:44:26;1.83;;;1.10;;
38123;SDS011;23934;47.998;9.832;2022-10-15T02:46:51;3.88;;;2.03;;
38123;SDS011;23934;47.998;9.832;2022-10-15T02:49:18;2.38;;;1.27;;
38123;SDS011;23934;47.998;9.832;2022-10-15T02:51:44;2.28;;;1.30;;
38123;SDS011;23934;47.998;9.832;2022-10-15T02:54:10;4.97;;;1.85;;
38123;SDS011;23934;47.998;9.832;2022-10-15T02:56:35;2.85;;;1.50;;
38123;SDS011;23934;47.998;9.832;2022-10-15T02:59:03;5.93;;;1.60;;
38123;SDS011;23934;47.998;9.832;2022-10-15T03:01:30;4.95;;;1.98;;
38123;SDS011;23934;47.998;9.832;2022-10-15T03:03:56;4.95;;;2.28;;
38123;SDS011;23934;47.998;9.832;2022-10-15T03:06:22;4.13;;;1.98;;
38123;SDS011;23934;47.998;9.832;2022-10-15T03:08:48;3.65;;;2.08;;
38123;SDS011;23934;47.998;9.832;2022-10-15T03:11:14;4.53;;;1.83;;
38123;SDS011;23934;47.998;9.832;2022-10-15T03:13:40;7.97;;;2.40;;
38123;SDS011;23934;47.998;9.832;2022-10-15T03:16:06;4.07;;;2.05;;
38123;SDS011;23934;47.998;9.832;2022-10-15T03:18:32;6.25;;;2.42;;
38123;SDS011;23934;47.998;9.832;2022-10-15T03:20:58;4.85;;;2.63;;
38123;SDS011;23934;47.998;9.832;2022-10-15T03:23:26;4.72;;;2.28;;
38123;SDS011;23934;47.998;9.832;2022-10-15T03:25:52;3.58;;;1.95;;
38123;SDS011;23934;47.998;9.832;2022-10-15T03:28:18;4.35;;;1.58;;
38123;SDS011;23934;47.998;9.832;2022-10-15T03:30:44;6.30;;;2.25;;
38123;SDS011;23934;47.998;9.832;2022-10-15T03:33:10;3.00;;;1.70;;
38123;SDS011;23934;47.998;9.832;2022-10-15T03:35:37;3.65;;;2.13;;
38123;SDS011;23934;47.998;9.832;2022-10-15T03:38:03;3.47;;;1.85;;
38123;SDS011;23934;47.998;9.832;2022-10-15T03:40:29;5.43;;;2.08;;
38123;SDS011;23934;47.998;9.832;2022-10-15T03:42:55;3.58;;;1.65;;
38123;SDS011;23934;47.998;9.832;2022-10-15T03:45:22;5.15;;;1.63;;
38123;SDS011;23934;47.998;9.832;2022-10-15T03:47:48;4.50;;;1.60;;
38123;SDS011;23934;47.998;9.832;2022-10-15T03:50:14;4.63;;;1.90;;
38123;SDS011;23934;47.998;9.832;2022-10-15T03:52:41;7.40;;;2.40;;
38123;SDS011;23934;47.998;9.832;2022-10-15T03:55:08;2.40;;;1.50;;
38123;SDS011;23934;47.998;9.832;2022-10-15T03:57:34;6.20;;;1.98;;
38123;SDS011;23934;47.998;9.832;2022-10-15T04:00:00;3.88;;;2.03;;
38123;SDS011;23934;47.998;9.832;2022-10-15T04:02:26;3.00;;;1.98;;
38123;SDS011;23934;47.998;9.832;2022-10-15T04:04:52;3.33;;;1.92;;
38123;SDS011;23934;47.998;9.832;2022-10-15T04:07:19;2.83;;;2.03;;
38123;SDS011;23934;47.998;9.832;2022-10-15T04:09:46;3.55;;;1.60;;
38123;SDS011;23934;47.998;9.832;2022-10-15T04:12:12;5.22;;;2.33;;
38123;SDS011;23934;47.998;9.832;2022-10-15T04:14:38;3.30;;;1.83;;
38123;SDS011;23934;47.998;9.832;2022-10-15T04:17:04;3.53;;;2.00;;
38123;SDS011;23934;47.998;9.832;2022-10-15T04:19:30;3.30;;;2.13;;
38123;SDS011;23934;47.998;9.832;2022-10-15T04:21:56;4.32;;;1.88;;
38123;SDS011;23934;47.998;9.832;2022-10-15T04:24:22;3.42;;;1.70;;
38123;SDS011;23934;47.998;9.832;2022-10-15T04:26:48;3.30;;;1.60;;
38123;SDS011;23934;47.998;9.832;2022-10-15T04:29:14;2.97;;;1.80;;
38123;SDS011;23934;47.998;9.832;2022-10-15T04:31:41;4.47;;;2.40;;
38123;SDS011;23934;47.998;9.832;2022-10-15T04:34:07;3.70;;;1.98;;
38123;SDS011;23934;47.998;9.832;2022-10-15T04:36:33;2.58;;;1.73;;
38123;SDS011;23934;47.998;9.832;2022-10-15T04:38:59;4.65;;;2.33;;
38123;SDS011;23934;47.998;9.832;2022-10-15T04:41:25;4.22;;;1.90;;
38123;SDS011;23934;47.998;9.832;2022-10-15T04:43:51;3.92;;;1.98;;
38123;SDS011;23934;47.998;9.832;2022-10-15T04:46:17;5.15;;;2.33;;
38123;SDS011;23934;47.998;9.832;2022-10-15T04:48:46;3.92;;;1.70;;
38123;SDS011;23934;47.998;9.832;2022-10-15T04:51:13;3.78;;;2.13;;
38123;SDS011;23934;47.998;9.832;2022-10-15T04:53:39;4.60;;;1.63;;
38123;SDS011;23934;47.998;9.832;2022-10-15T04:56:06;2.47;;;1.55;;
38123;SDS011;23934;47.998;9.832;2022-10-15T04:58:33;1.92;;;1.27;;
38123;SDS011;23934;47.998;9.832;2022-10-15T05:01:00;3.15;;;1.52;;
38123;SDS011;23934;47.998;9.832;2022-10-15T05:03:26;2.58;;;1.73;;
38123;SDS011;23934;47.998;9.832;2022-10-15T05:05:52;2.72;;;1.45;;
38123;SDS011;23934;47.998;9.832;2022-10-15T05:08:18;2.30;;;1.50;;
38123;SDS011;23934;47.998;9.832;2022-10-15T05:10:44;4.18;;;1.73;;
38123;SDS011;23934;47.998;9.832;2022-10-15T05:13:10;3.55;;;1.83;;
38123;SDS011;23934;47.998;9.832;2022-10-15T05:15:36;3.95;;;2.03;;
38123;SDS011;23934;47.998;9.832;2022-10-15T05:18:02;6.28;;;3.22;;
38123;SDS011;23934;47.998;9.832;2022-10-15T05:20:28;2.15;;;1.55;;
38123;SDS011;23934;47.998;9.832;2022-10-15T05:22:54;7.72;;;2.88;;
38123;SDS011;23934;47.998;9.832;2022-10-15T05:25:20;6.57;;;2.47;;
38123;SDS011;23934;47.998;9.832;2022-10-15T05:27:45;10.05;;;2.95;;
38123;SDS011;23934;47.998;9.832;2022-10-15T05:30:11;7.18;;;2.67;;
38123;SDS011;23934;47.998;9.832;2022-10-15T05:32:37;4.65;;;2.28;;
38123;SDS011;23934;47.998;9.832;2022-10-15T05:35:03;9.35;;;2.72;;
38123;SDS011;23934;47.998;9.832;2022-10-15T05:37:30;4.28;;;2.17;;
38123;SDS011;23934;47.998;9.832;2022-10-15T05:39:55;8.73;;;3.30;;
38123;SDS011;23934;47.998;9.832;2022-10-15T05:42:21;4.63;;;2.00;;
38123;SDS011;23934;47.998;9.832;2022-10-15T05:44:47;6.75;;;3.53;;
38123;SDS011;23934;47.998;9.832;2022-10-15T05:47:13;2.83;;;1.77;;
38123;SDS011;23934;47.998;9.832;2022-10-15T05:49:39;4.82;;;2.40;;
38123;SDS011;23934;47.998;9.832;2022-10-15T05:52:05;7.05;;;3.47;;
38123;SDS011;23934;47.998;9.832;2022-10-15T05:54:31;4.45;;;1.88;;
38123;SDS011;23934;47.998;9.832;2022-10-15T05:56:57;4.70;;;2.50;;
38123;SDS011;23934;47.998;9.832;2022-10-15T05:59:23;4.30;;;2.28;;
38123;SDS011;23934;47.998;9.832;2022-10-15T06:01:49;4.53;;;2.60;;
38123;SDS011;23934;47.998;9.832;2022-10-15T06:04:15;6.85;;;3.17;;
38123;SDS011;23934;47.998;9.832;2022-10-15T06:06:41;4.95;;;2.50;;
38123;SDS011;23934;47.998;9.832;2022-10-15T06:09:07;7.45;;;2.83;;
38123;SDS011;23934;47.998;9.832;2022-10-15T06:11:34;6.05;;;3.13;;
38123;SDS011;23934;47.998;9.832;2022-10-15T06:14:00;5.03;;;1.90;;
38123;SDS011;23934;47.998;9.832;2022-10-15T06:16:26;10.23;;;3.47;;
38123;SDS011;23934;47.998;9.832;2022-10-15T06:18:52;5.93;;;2.60;;
38123;SDS011;23934;47.998;9.832;2022-10-15T06:21:18;6.05;;;3.33;;
38123;SDS011;23934;47.998;9.832;2022-10-15T06:23:44;4.35;;;1.98;;
38123;SDS011;23934;47.998;9.832;2022-10-15T06:26:10;7.15;;;2.33;;
38123;SDS011;23934;47.998;9.832;2022-10-15T06:28:36;6.13;;;2.00;;
38123;SDS011;23934;47.998;9.832;2022-10-15T06:31:03;3.35;;;1.80;;
38123;SDS011;23934;47.998;9.832;2022-10-15T06:33:29;5.28;;;1.95;;
38123;SDS011;23934;47.998;9.832;2022-10-15T06:36:02;9.57;;;3.90;;
38123;SDS011;23934;47.998;9.832;2022-10-15T06:38:28;5.93;;;2.67;;
38123;SDS011;23934;47.998;9.832;2022-10-15T06:40:54;6.20;;;2.50;;
38123;SDS011;23934;47.998;9.832;2022-10-15T06:43:20;5.03;;;2.28;;
38123;SDS011;23934;47.998;9.832;2022-10-15T06:45:47;20.13;;;5.85;;
38123;SDS011;23934;47.998;9.832;2022-10-15T06:48:13;32.20;;;9.15;;
38123;SDS011;23934;47.998;9.832;2022-10-15T06:50:39;11.18;;;3.40;;
38123;SDS011;23934;47.998;9.832;2022-10-15T06:53:05;19.85;;;6.43;;
38123;SDS011;23934;47.998;9.832;2022-10-15T06:55:31;5.28;;;2.50;;
38123;SDS011;23934;47.998;9.832;2022-10-15T06:57:58;10.32;;;3.08;;
38123;SDS011;23934;47.998;9.832;2022-10-15T07:00:24;2.90;;;1.55;;
38123;SDS011;23934;47.998;9.832;2022-10-15T07:02:50;3.67;;;1.60;;
38123;SDS011;23934;47.998;9.832;2022-10-15T07:05:16;2.10;;;1.17;;
38123;SDS011;23934;47.998;9.832;2022-10-15T07:07:49;3.40;;;1.63;;
38123;SDS011;23934;47.998;9.832;2022-10-15T07:10:15;1.60;;;0.90;;
38123;SDS011;23934;47.998;9.832;2022-10-15T07:12:41;2.47;;;1.00;;
38123;SDS011;23934;47.998;9.832;2022-10-15T07:15:07;1.88;;;0.95;;
38123;SDS011;23934;47.998;9.832;2022-10-15T07:17:33;5.93;;;0.80;;
38123;SDS011;23934;47.998;9.832;2022-10-15T07:20:00;1.80;;;1.13;;
38123;SDS011;23934;47.998;9.832;2022-10-15T07:22:26;2.10;;;1.13;;
38123;SDS011;23934;47.998;9.832;2022-10-15T07:24:51;1.48;;;1.10;;
38123;SDS011;23934;47.998;9.832;2022-10-15T07:27:17;4.15;;;1.10;;
38123;SDS011;23934;47.998;9.832;2022-10-15T07:29:52;3.97;;;1.60;;
38123;SDS011;23934;47.998;9.832;2022-10-15T07:32:18;3.17;;;1.20;;
38123;SDS011;23934;47.998;9.832;2022-10-15T07:34:43;1.50;;;1.02;;
38123;SDS011;23934;47.998;9.832;2022-10-15T07:37:09;5.50;;;1.88;;
38123;SDS011;23934;47.998;9.832;2022-10-15T07:39:35;6.07;;;1.60;;
38123;SDS011;23934;47.998;9.832;2022-10-15T07:42:01;3.35;;;0.90;;
38123;SDS011;23934;47.998;9.832;2022-10-15T07:44:27;4.07;;;1.00;;
38123;SDS011;23934;47.998;9.832;2022-10-15T07:46:53;2.67;;;0.90;;
38123;SDS011;23934;47.998;9.832;2022-10-15T07:49:19;3.55;;;1.20;;
38123;SDS011;23934;47.998;9.832;2022-10-15T07:51:45;3.95;;;1.05;;
38123;SDS011;23934;47.998;9.832;2022-10-15T07:54:11;4.68;;;1.50;;
38123;SDS011;23934;47.998;9.832;2022-10-15T07:56:37;3.35;;;1.08;;
38123;SDS011;23934;47.998;9.832;2022-10-15T07:59:03;5.80;;;1.60;;
38123;SDS011;23934;47.998;9.832;2022-10-15T08:01:29;1.00;;;0.52;;
38123;SDS011;23934;47.998;9.832;2022-10-15T08:03:55;3.42;;;1.10;;
38123;SDS011;23934;47.998;9.832;2022-10-15T08:06:21;4.88;;;1.50;;
38123;SDS011;23934;47.998;9.832;2022-10-15T08:08:47;4.25;;;0.85;;
38123;SDS011;23934;47.998;9.832;2022-10-15T08:11:14;4.10;;;1.20;;
38123;SDS011;23934;47.998;9.832;2022-10-15T08:13:40;1.90;;;1.10;;
38123;SDS011;23934;47.998;9.832;2022-10-15T08:16:07;1.05;;;0.70;;
38123;SDS011;23934;47.998;9.832;2022-10-15T08:18:33;5.57;;;1.50;;
38123;SDS011;23934;47.998;9.832;2022-10-15T08:20:59;2.42;;;0.85;;
38123;SDS011;23934;47.998;9.832;2022-10-15T08:23:25;2.78;;;0.50;;
38123;SDS011;23934;47.998;9.832;2022-10-15T08:25:52;2.17;;;1.15;;
38123;SDS011;23934;47.998;9.832;2022-10-15T08:28:18;1.58;;;0.90;;
38123;SDS011;23934;47.998;9.832;2022-10-15T08:30:44;2.03;;;1.17;;
38123;SDS011;23934;47.998;9.832;2022-10-15T08:33:10;2.20;;;1.17;;
38123;SDS011;23934;47.998;9.832;2022-10-15T08:35:39;1.95;;;1.00;;
38123;SDS011;23934;47.998;9.832;2022-10-15T08:38:05;2.85;;;1.20;;
38123;SDS011;23934;47.998;9.832;2022-10-15T08:40:31;2.40;;;1.02;;
38123;SDS011;23934;47.998;9.832;2022-10-15T08:42:57;5.05;;;1.40;;
38123;SDS011;23934;47.998;9.832;2022-10-15T08:45:24;2.22;;;0.93;;
38123;SDS011;23934;47.998;9.832;2022-10-15T08:48:00;2.95;;;0.90;;
38123;SDS011;23934;47.998;9.832;2022-10-15T08:52:57;5.07;;;1.10;;
38123;SDS011;23934;47.998;9.832;2022-10-15T08:55:23;2.10;;;1.00;;
38123;SDS011;23934;47.998;9.832;2022-10-15T09:00:46;2.88;;;1.10;;
38123;SDS011;23934;47.998;9.832;2022-10-15T09:11:15;2.03;;;1.13;;
38123;SDS011;23934;47.998;9.832;2022-10-15T09:13:43;2.28;;;1.40;;
38123;SDS011;23934;47.998;9.832;2022-10-15T09:16:14;7.30;;;1.02;;
38123;SDS011;23934;47.998;9.832;2022-10-15T09:18:41;2.00;;;1.13;;
38123;SDS011;23934;47.998;9.832;2022-10-15T09:21:08;1.50;;;1.00;;
38123;SDS011;23934;47.998;9.832;2022-10-15T09:23:35;1.92;;;1.15;;
38123;SDS011;23934;47.998;9.832;2022-10-15T09:29:23;1.00;;;0.90;;
38123;SDS011;23934;47.998;9.832;2022-10-15T09:31:24;3.70;;;1.30;;
38123;SDS011;23934;47.998;9.832;2022-10-15T09:34:01;13.70;;;1.40;;
38123;SDS011;23934;47.998;9.832;2022-10-15T09:36:42;2.97;;;1.10;;
38123;SDS011;23934;47.998;9.832;2022-10-15T09:39:15;2.63;;;1.27;;
38123;SDS011;23934;47.998;9.832;2022-10-15T09:41:47;4.07;;;1.08;;
38123;SDS011;23934;47.998;9.832;2022-10-15T09:44:17;3.10;;;1.15;;
38123;SDS011;23934;47.998;9.832;2022-10-15T09:46:45;1.80;;;1.00;;
38123;SDS011;23934;47.998;9.832;2022-10-15T09:49:22;3.40;;;1.08;;
38123;SDS011;23934;47.998;9.832;2022-10-15T09:54:52;4.78;;;1.13;;
38123;SDS011;23934;47.998;9.832;2022-10-15T09:57:21;5.70;;;1.45;;
38123;SDS011;23934;47.998;9.832;2022-10-15T09:59:52;1.73;;;0.98;;
38123;SDS011;23934;47.998;9.832;2022-10-15T10:02:19;5.10;;;1.20;;
38123;SDS011;23934;47.998;9.832;2022-10-15T10:04:45;1.50;;;1.05;;
38123;SDS011;23934;47.998;9.832;2022-10-15T10:07:33;11.02;;;1.30;;
38123;SDS011;23934;47.998;9.832;2022-10-15T10:10:02;3.20;;;1.35;;
38123;SDS011;23934;47.998;9.832;2022-10-15T10:12:33;3.22;;;1.02;;
38123;SDS011;23934;47.998;9.832;2022-10-15T10:17:29;5.47;;;1.58;;
38123;SDS011;23934;47.998;9.832;2022-10-15T10:20:28;3.15;;;1.92;;
38123;SDS011;23934;47.998;9.832;2022-10-15T10:22:51;8.55;;;1.30;;
38123;SDS011;23934;47.998;9.832;2022-10-15T10:25:37;1.65;;;0.98;;
38123;SDS011;23934;47.998;9.832;2022-10-15T10:28:05;2.00;;;1.10;;
38123;SDS011;23934;47.998;9.832;2022-10-15T10:30:46;2.33;;;1.20;;
38123;SDS011;23934;47.998;9.832;2022-10-15T10:33:14;2.58;;;1.05;;
38123;SDS011;23934;47.998;9.832;2022-10-15T10:35:48;3.03;;;1.30;;
38123;SDS011;23934;47.998;9.832;2022-10-15T10:38:22;3.08;;;1.15;;
38123;SDS011;23934;47.998;9.832;2022-10-15T10:40:49;1.95;;;1.50;;
38123;SDS011;23934;47.998;9.832;2022-10-15T10:48:27;3.78;;;1.00;;
38123;SDS011;23934;47.998;9.832;2022-10-15T10:51:04;0.98;;;0.88;;
38123;SDS011;23934;47.998;9.832;2022-10-15T10:53:31;2.28;;;0.70;;
38123;SDS011;23934;47.998;9.832;2022-10-15T10:55:58;2.72;;;0.93;;
38123;SDS011;23934;47.998;9.832;2022-10-15T10:58:26;1.88;;;0.90;;
38123;SDS011;23934;47.998;9.832;2022-10-15T11:00:54;1.27;;;0.90;;
38123;SDS011;23934;47.998;9.832;2022-10-15T11:03:30;3.10;;;0.93;;
38123;SDS011;23934;47.998;9.832;2022-10-15T11:06:11;1.63;;;1.00;;
38123;SDS011;23934;47.998;9.832;2022-10-15T11:13:44;6.63;;;1.20;;
38123;SDS011;23934;47.998;9.832;2022-10-15T11:24:23;13.95;;;2.10;;
38123;SDS011;23934;47.998;9.832;2022-10-15T11:31:41;1.20;;;0.85;;
38123;SDS011;23934;47.998;9.832;2022-10-15T11:36:44;3.55;;;1.25;;
38123;SDS011;23934;47.998;9.832;2022-10-15T11:39:23;2.92;;;1.20;;
38123;SDS011;23934;47.998;9.832;2022-10-15T11:41:58;12.88;;;1.65;;
38123;SDS011;23934;47.998;9.832;2022-10-15T11:44:47;4.32;;;1.83;;
38123;SDS011;23934;47.998;9.832;2022-10-15T11:47:26;3.58;;;1.20;;
38123;SDS011;23934;47.998;9.832;2022-10-15T11:50:07;3.65;;;1.25;;
38123;SDS011;23934;47.998;9.832;2022-10-15T11:55:10;2.92;;;1.17;;
38123;SDS011;23934;47.998;9.832;2022-10-15T11:57:38;2.63;;;1.20;;
38123;SDS011;23934;47.998;9.832;2022-10-15T12:00:26;1.40;;;1.00;;
38123;SDS011;23934;47.998;9.832;2022-10-15T12:02:54;2.20;;;1.38;;
38123;SDS011;23934;47.998;9.832;2022-10-15T12:05:26;2.90;;;1.17;;
38123;SDS011;23934;47.998;9.832;2022-10-15T12:07:54;3.83;;;1.13;;
38123;SDS011;23934;47.998;9.832;2022-10-15T12:13:48;3.78;;;1.60;;
38123;SDS011;23934;47.998;9.832;2022-10-15T12:18:27;3.88;;;1.42;;
38123;SDS011;23934;47.998;9.832;2022-10-15T12:20:58;2.35;;;1.05;;
38123;SDS011;23934;47.998;9.832;2022-10-15T12:25:59;2.28;;;1.02;;
38123;SDS011;23934;47.998;9.832;2022-10-15T12:28:26;5.97;;;2.60;;
38123;SDS011;23934;47.998;9.832;2022-10-15T12:31:02;8.60;;;2.83;;
38123;SDS011;23934;47.998;9.832;2022-10-15T12:33:33;5.97;;;1.17;;
38123;SDS011;23934;47.998;9.832;2022-10-15T12:36:01;2.75;;;1.60;;
38123;SDS011;23934;47.998;9.832;2022-10-15T12:38:28;8.60;;;2.88;;
38123;SDS011;23934;47.998;9.832;2022-10-15T12:40:56;3.20;;;1.45;;
38123;SDS011;23934;47.998;9.832;2022-10-15T12:43:23;6.00;;;1.30;;
38123;SDS011;23934;47.998;9.832;2022-10-15T12:45:53;3.40;;;1.77;;
38123;SDS011;23934;47.998;9.832;2022-10-15T12:48:22;1.95;;;1.02;;
38123;SDS011;23934;47.998;9.832;2022-10-15T12:51:13;4.05;;;1.42;;
38123;SDS011;23934;47.998;9.832;2022-10-15T12:53:40;4.10;;;1.60;;
38123;SDS011;23934;47.998;9.832;2022-10-15T12:58:36;2.00;;;0.90;;
38123;SDS011;23934;47.998;9.832;2022-10-15T13:01:26;1.60;;;1.00;;
38123;SDS011;23934;47.998;9.832;2022-10-15T13:03:52;3.03;;;1.30;;
38123;SDS011;23934;47.998;9.832;2022-10-15T13:08:47;8.30;;;1.75;;
38123;SDS011;23934;47.998;9.832;2022-10-15T13:11:18;1.63;;;1.10;;
38123;SDS011;23934;47.998;9.832;2022-10-15T13:13:45;2.00;;;1.23;;
38123;SDS011;23934;47.998;9.832;2022-10-15T13:16:11;2.88;;;1.63;;
38123;SDS011;23934;47.998;9.832;2022-10-15T13:18:37;4.15;;;1.52;;
38123;SDS011;23934;47.998;9.832;2022-10-15T13:21:05;3.50;;;1.48;;
38123;SDS011;23934;47.998;9.832;2022-10-15T13:23:32;1.10;;;0.90;;
38123;SDS011;23934;47.998;9.832;2022-10-15T13:26:11;2.75;;;1.50;;
38123;SDS011;23934;47.998;9.832;2022-10-15T13:28:38;1.63;;;1.13;;
38123;SDS011;23934;47.998;9.832;2022-10-15T13:31:06;4.57;;;1.30;;
38123;SDS011;23934;47.998;9.832;2022-10-15T13:33:33;6.63;;;1.27;;
38123;SDS011;23934;47.998;9.832;2022-10-15T13:36:07;11.55;;;2.17;;
38123;SDS011;23934;47.998;9.832;2022-10-15T13:38:34;2.15;;;0.98;;
38123;SDS011;23934;47.998;9.832;2022-10-15T13:41:01;2.33;;;1.05;;
38123;SDS011;23934;47.998;9.832;2022-10-15T13:43:28;1.20;;;1.00;;
38123;SDS011;23934;47.998;9.832;2022-10-15T13:45:57;4.05;;;1.15;;
38123;SDS011;23934;47.998;9.832;2022-10-15T13:48:24;2.20;;;1.15;;
38123;SDS011;23934;47.998;9.832;2022-10-15T13:50:51;2.08;;;1.00;;
38123;SDS011;23934;47.998;9.832;2022-10-15T13:55:47;1.83;;;1.20;;
38123;SDS011;23934;47.998;9.832;2022-10-15T13:58:21;3.28;;;0.98;;
38123;SDS011;23934;47.998;9.832;2022-10-15T14:00:58;8.98;;;1.30;;
38123;SDS011;23934;47.998;9.832;2022-10-15T14:03:26;2.83;;;1.00;;
38123;SDS011;23934;47.998;9.832;2022-10-15T14:05:53;1.95;;;0.88;;
38123;SDS011;23934;47.998;9.832;2022-10-15T14:08:20;1.65;;;1.00;;
38123;SDS011;23934;47.998;9.832;2022-10-15T14:10:47;3.60;;;1.00;;
38123;SDS011;23934;47.998;9.832;2022-10-15T14:13:13;1.52;;;0.90;;
38123;SDS011;23934;47.998;9.832;2022-10-15T14:15:44;1.35;;;1.00;;
38123;SDS011;23934;47.998;9.832;2022-10-15T14:18:11;2.33;;;1.05;;
38123;SDS011;23934;47.998;9.832;2022-10-15T14:20:41;3.67;;;0.90;;
38123;SDS011;23934;47.998;9.832;2022-10-15T14:23:13;5.55;;;1.10;;
38123;SDS011;23934;47.998;9.832;2022-10-15T14:28:13;1.63;;;1.02;;
38123;SDS011;23934;47.998;9.832;2022-10-15T14:30:41;1.65;;;1.02;;
38123;SDS011;23934;47.998;9.832;2022-10-15T14:33:28;5.63;;;1.60;;
38123;SDS011;23934;47.998;9.832;2022-10-15T14:36:07;1.83;;;1.00;;
38123;SDS011;23934;47.998;9.832;2022-10-15T14:38:34;9.07;;;1.42;;
38123;SDS011;23934;47.998;9.832;2022-10-15T14:41:04;1.80;;;0.80;;
38123;SDS011;23934;47.998;9.832;2022-10-15T14:43:36;1.95;;;0.85;;
38123;SDS011;23934;47.998;9.832;2022-10-15T14:46:03;2.72;;;0.88;;
38123;SDS011;23934;47.998;9.832;2022-10-15T14:48:34;1.85;;;1.00;;
38123;SDS011;23934;47.998;9.832;2022-10-15T14:51:02;6.28;;;1.40;;
38123;SDS011;23934;47.998;9.832;2022-10-15T14:53:32;3.72;;;1.20;;
38123;SDS011;23934;47.998;9.832;2022-10-15T14:56:02;2.15;;;0.70;;
38123;SDS011;23934;47.998;9.832;2022-10-15T14:58:28;2.58;;;1.05;;
38123;SDS011;23934;47.998;9.832;2022-10-15T15:00:58;5.53;;;1.20;;
38123;SDS011;23934;47.998;9.832;2022-10-15T15:03:26;4.55;;;1.17;;
38123;SDS011;23934;47.998;9.832;2022-10-15T15:05:53;2.40;;;1.17;;
38123;SDS011;23934;47.998;9.832;2022-10-15T15:08:21;1.20;;;0.98;;
38123;SDS011;23934;47.998;9.832;2022-10-15T15:10:47;1.17;;;0.90;;
38123;SDS011;23934;47.998;9.832;2022-10-15T15:13:21;1.58;;;1.00;;
38123;SDS011;23934;47.998;9.832;2022-10-15T15:15:47;1.48;;;1.25;;
38123;SDS011;23934;47.998;9.832;2022-10-15T15:18:13;5.00;;;1.40;;
38123;SDS011;23934;47.998;9.832;2022-10-15T15:20:40;3.53;;;1.30;;
38123;SDS011;23934;47.998;9.832;2022-10-15T15:23:08;5.95;;;1.10;;
38123;SDS011;23934;47.998;9.832;2022-10-15T15:25:37;4.10;;;1.00;;
38123;SDS011;23934;47.998;9.832;2022-10-15T15:28:05;2.58;;;1.10;;
38123;SDS011;23934;47.998;9.832;2022-10-15T15:30:31;4.47;;;1.30;;
38123;SDS011;23934;47.998;9.832;2022-10-15T15:32:59;2.38;;;1.38;;
38123;SDS011;23934;47.998;9.832;2022-10-15T15:35:34;2.88;;;1.13;;
38123;SDS011;23934;47.998;9.832;2022-10-15T15:38:01;1.85;;;1.00;;
38123;SDS011;23934;47.998;9.832;2022-10-15T15:40:27;5.88;;;1.38;;
38123;SDS011;23934;47.998;9.832;2022-10-15T15:42:53;2.70;;;1.40;;
38123;SDS011;23934;47.998;9.832;2022-10-15T15:45:21;3.55;;;1.40;;
38123;SDS011;23934;47.998;9.832;2022-10-15T15:47:47;6.13;;;1.17;;
38123;SDS011;23934;47.998;9.832;2022-10-15T15:50:14;3.17;;;1.10;;
38123;SDS011;23934;47.998;9.832;2022-10-15T15:52:40;2.28;;;1.38;;
38123;SDS011;23934;47.998;9.832;2022-10-15T15:55:06;3.85;;;1.90;;
38123;SDS011;23934;47.998;9.832;2022-10-15T15:57:32;5.80;;;2.15;;
38123;SDS011;23934;47.998;9.832;2022-10-15T15:59:58;10.68;;;2.75;;
38123;SDS011;23934;47.998;9.832;2022-10-15T16:02:24;12.68;;;4.60;;
38123;SDS011;23934;47.998;9.832;2022-10-15T16:04:50;28.95;;;4.18;;
38123;SDS011;23934;47.998;9.832;2022-10-15T16:07:16;6.85;;;1.75;;
38123;SDS011;23934;47.998;9.832;2022-10-15T16:09:42;5.57;;;1.73;;
38123;SDS011;23934;47.998;9.832;2022-10-15T16:12:08;3.58;;;1.30;;
38123;SDS011;23934;47.998;9.832;2022-10-15T16:14:34;2.65;;;1.33;;
38123;SDS011;23934;47.998;9.832;2022-10-15T16:17:00;1.50;;;1.13;;
38123;SDS011;23934;47.998;9.832;2022-10-15T16:19:26;6.00;;;1.73;;
38123;SDS011;23934;47.998;9.832;2022-10-15T16:21:52;6.47;;;2.42;;
38123;SDS011;23934;47.998;9.832;2022-10-15T16:24:18;5.28;;;1.58;;
38123;SDS011;23934;47.998;9.832;2022-10-15T16:26:44;3.10;;;1.50;;